Latest Weather Observations for Clermont Airport

IDQ60801

Issued at 3:32 pm EST Sunday 20 August 2017 (issued every 30 minutes, with the page automatically refreshed every 10 minutes)

About weather observations | Map of weather stations | Latest weather observations for QLD | Other Formats
Station Details ID: 035124 Name: CLERMONT AIRPORT Lat: -22.78 Lon: 147.62 Height: 270.27 m
Data from the previous 72 hours. | See also: Recent months at Clermont Airport
Date/Time
EST
Temp
°C
App
Temp
°C
Dew
Point
°C
Rel
Hum
%
Delta-T
°C
Wind Press
QNH
hPa
Press
MSL
hPa
Rain since
9am
mm
Dir  Spd
km/h
Gust
km/h
Spd
kts
Gust
kts
20/03:30pm 19.6 14.5 -9.5 13 10.7 SE 11 20 6 11 1018.3 1017.7 0.0
20/03:00pm 20.5 15.4 -9.8 12 11.2 SSE 11 22 6 12 1018.4 1017.8 0.0
20/02:30pm 19.9 15.0 -7.5 15 10.5 S 11 20 6 11 1018.8 1018.2 0.0
20/02:00pm 18.9 14.3 -7.4 16 10.0 S 9 17 5 9 1018.9 1018.3 0.0
20/01:30pm 18.4 12.7 -7.8 16 9.9 SSE 15 28 8 15 1019.5 1019.0 0.0
20/01:00pm 18.1 12.8 -7.3 17 9.6 SE 13 28 7 15 1019.9 1019.4 0.0
20/12:30pm 18.7 13.4 -6.8 17 9.8 SE 13 22 7 12 1020.2 1019.7 0.0
20/12:00pm 17.7 12.1 -6.9 18 9.3 SSE 15 32 8 17 1021.1 1020.6 0.0
20/11:30am 17.7 12.6 -5.5 20 9.1 SSE 13 26 7 14 1022.0 1021.4 0.0
20/11:00am 16.6 11.5 -5.2 22 8.5 SE 13 22 7 12 1022.5 1022.0 0.0
20/10:30am 15.7 9.5 -5.3 23 8.1 SE 19 28 10 15 1022.6 1022.1 0.0
20/10:00am 16.0 9.8 -4.5 24 8.0 SE 19 30 10 16 1022.8 1022.3 0.0
20/09:30am 14.9 8.7 -4.9 25 7.6 SE 19 35 10 19 1023.2 1022.7 0.0
20/09:00am 13.8 8.0 -4.8 27 7.1 ESE 17 26 9 14 1023.2 1022.7 0.0
20/08:30am 12.6 7.5 -5.4 28 6.7 SE 13 20 7 11 1023.1 1022.6 0.0
20/08:00am 10.9 6.5 -5.5 31 5.9 SSE 9 19 5 10 1023.0 1022.5 0.0
20/07:30am 8.5 5.0 -6.4 34 5.1 SSE 4 6 2 3 1022.5 1022.0 0.0
20/07:27am 8.2 4.7 -6.3 35 5.0 SSE 4 6 2 3 1022.5 1022.0 0.0
20/07:00am 3.2 0.3 -4.5 57 2.6 S 2 4 1 2 1022.2 1021.7 0.0
20/06:30am 1.9 -1.5 -5.5 58 2.5 S 4 6 2 3 1021.7 1021.2 0.0
20/06:00am 1.7 -1.1 -6.6 54 2.7 CALM 0 0 0 0 1021.5 1021.0 0.0
20/05:30am 1.8 -1.0 -6.7 53 2.8 CALM 0 0 0 0 1021.3 1020.8 0.0
20/05:00am 2.2 -0.6 -6.9 51 3.0 CALM 0 0 0 0 1020.8 1020.3 0.0
20/04:30am 2.4 -0.5 -7.5 48 3.2 CALM 0 0 0 0 1020.6 1020.1 0.0
20/04:00am 3.3 0.4 -7.8 44 3.6 CALM 0 0 0 0 1020.5 1020.0 0.0
20/03:30am 3.7 0.8 -7.7 43 3.6 CALM 0 0 0 0 1020.3 1019.8 0.0
20/03:00am 4.5 1.7 -7.3 42 3.7 CALM 0 0 0 0 1020.5 1020.0 0.0
20/02:30am 4.7 1.8 -8.0 39 4.0 CALM 0 0 0 0 1020.4 1019.9 0.0
20/02:00am 6.6 3.7 -7.7 35 4.6 CALM 0 0 0 0 1020.8 1020.3 0.0
20/01:30am 7.6 4.3 -8.4 31 5.2 SSE 2 4 1 2 1020.9 1020.4 0.0
20/01:00am 8.7 5.7 -8.8 28 5.7 CALM 0 0 0 0 1021.0 1020.5 0.0
20/12:30am 11.5 7.4 -8.9 23 6.9 SSE 6 9 3 5 1020.7 1020.2 0.0
20/12:00am 12.2 7.6 -8.3 23 7.1 S 9 13 5 7 1020.9 1020.4 0.0
 
Date/Time
EST
Temp
°C
App
Temp
°C
Dew
Point
°C
Rel
Hum
%
Delta-T
°C
Wind Press
QNH
hPa
Press
MSL
hPa
Rain since
9am
mm
Dir  Spd
km/h
Gust
km/h
Spd
kts
Gust
kts
19/11:30pm 9.0 4.8 -7.6 30 5.6 S 7 9 4 5 1020.9 1020.4 0.0
19/11:00pm 9.6 5.6 -8.0 28 5.9 S 6 6 3 3 1020.8 1020.3 0.0
19/10:30pm 9.2 5.6 -7.0 31 5.6 S 4 6 2 3 1021.0 1020.5 0.0
19/10:00pm 8.8 5.9 -8.2 29 5.6 CALM 0 4 0 2 1020.9 1020.4 0.0
19/09:30pm 12.9 8.9 -7.7 23 7.3 SSW 6 7 3 4 1020.5 1020.0 0.0
19/09:00pm 10.5 6.4 -6.8 29 6.0 SW 7 9 4 5 1020.3 1019.8 0.0
19/08:30pm 11.3 7.6 -8.0 25 6.6 SW 4 6 2 3 1020.0 1019.5 0.0
19/08:00pm 14.6 10.4 -8.1 20 8.1 SSW 7 7 4 4 1019.7 1019.2 0.0
19/07:30pm 13.8 9.8 -8.1 21 7.8 S 6 7 3 4 1019.4 1018.9 0.0
19/07:00pm 15.3 11.6 -8.8 18 8.5 S 4 6 2 3 1019.0 1018.5 0.0
19/06:30pm 18.8 15.7 -10.2 13 10.4 CALM 0 0 0 0 1018.4 1017.8 0.0
19/06:00pm 21.3 17.5 -10.3 11 11.7 SSE 4 6 2 3 1018.1 1017.5 0.0
19/05:30pm 22.6 17.4 -10.5 10 12.4 S 11 15 6 8 1017.7 1017.2 0.0
19/05:00pm 23.5 17.5 -11.2 9 12.9 S 15 22 8 12 1017.5 1017.0 0.0
19/04:30pm 23.9 17.8 -12.3 8 13.3 SSE 15 24 8 13 1017.4 1016.9 0.0
19/04:00pm 24.4 19.5 -11.9 8 13.5 S 9 20 5 11 1017.3 1016.8 0.0
19/03:30pm 24.3 18.3 -12.0 8 13.4 S 15 24 8 13 1017.4 1016.9 0.0
19/03:00pm 24.2 17.4 -12.1 8 13.4 SSW 19 26 10 14 1017.6 1017.1 0.0
19/02:30pm 23.7 18.5 -11.0 9 13.0 S 11 26 6 14 1017.9 1017.4 0.0
19/02:00pm 23.8 18.2 -10.9 9 13.0 S 13 26 7 14 1018.4 1017.8 0.0
19/01:30pm 23.1 17.5 -11.5 9 12.8 SSW 13 22 7 12 1018.8 1018.2 0.0
19/01:00pm 22.8 17.0 -9.2 11 12.3 S 15 24 8 13 1019.4 1018.9 0.0
19/12:30pm 22.1 17.2 -6.6 14 11.5 SE 11 24 6 13 1019.9 1019.4 0.0
19/12:00pm 21.1 14.9 -8.4 13 11.3 S 17 24 9 13 1020.6 1020.1 0.0
19/11:30am 21.1 16.3 -6.5 15 11.0 SE 11 19 6 10 1021.1 1020.6 0.0
19/11:00am 19.5 14.3 -6.2 17 10.1 SSE 13 20 7 11 1021.5 1021.0 0.0
19/10:30am 19.3 13.8 -5.6 18 9.9 SE 15 24 8 13 1022.0 1021.4 0.0
19/10:00am 18.0 12.0 -6.6 18 9.4 SE 17 28 9 15 1022.4 1021.9 0.0
19/09:30am 17.2 11.2 -6.6 19 9.1 SE 17 26 9 14 1022.4 1021.9 0.0
19/09:00am 17.1 11.1 -6.7 19 9.0 SSE 17 33 9 18 1022.4 1021.9 0.0
19/08:30am 16.1 10.5 -6.8 20 8.6 SSE 15 30 8 16 1022.4 1021.9 0.0
19/08:00am 15.0 9.7 -7.1 21 8.1 SSE 13 26 7 14 1022.2 1021.7 0.0
19/07:30am 12.5 8.4 -6.5 26 6.9 S 7 11 4 6 1021.7 1021.2 0.0
19/07:27am 12.4 8.3 -6.5 26 6.8 S 7 11 4 6 1021.7 1021.2 0.0
19/07:00am 7.4 4.0 -5.3 40 4.4 S 4 6 2 3 1021.3 1020.8 0.0
19/06:30am 6.5 3.8 -6.1 40 4.3 CALM 0 0 0 0 1021.0 1020.5 0.0
19/06:00am 8.3 5.2 -6.6 34 5.1 ESE 2 4 1 2 1020.5 1020.0 0.0
19/05:30am 9.0 6.2 -7.2 31 5.5 CALM 0 0 0 0 1020.1 1019.6 0.0
19/05:00am 9.6 6.8 -7.1 30 5.7 CALM 0 2 0 1 1019.9 1019.4 0.0
19/04:30am 12.5 8.6 -7.0 25 7.0 SSE 6 7 3 4 1019.6 1019.1 0.0
19/04:00am 14.5 10.8 -8.2 20 8.1 SSE 4 7 2 4 1019.4 1018.9 0.0
19/03:30am 14.9 10.6 -8.5 19 8.3 S 7 9 4 5 1019.2 1018.7 0.0
19/03:00am 15.5 11.5 -8.0 19 8.5 S 6 6 3 3 1019.3 1018.8 0.0
19/02:30am 16.9 12.8 -8.3 17 9.2 SSE 6 7 3 4 1019.4 1018.9 0.0
19/02:00am 18.0 13.9 -9.0 15 9.8 SSE 6 9 3 5 1019.4 1018.9 0.0
19/01:30am 18.5 13.8 -8.6 15 10.0 S 9 15 5 8 1019.4 1018.9 0.0
19/01:00am 18.9 14.4 -6.7 17 9.9 S 9 13 5 7 1019.5 1019.0 0.0
19/12:30am 19.9 15.0 -6.6 16 10.4 S 11 17 6 9 1019.4 1018.9 0.0
19/12:00am 20.3 15.2 -5.5 17 10.4 S 13 17 7 9 1019.4 1018.9 0.0
 
Date/Time
EST
Temp
°C
App
Temp
°C
Dew
Point
°C
Rel
Hum
%
Delta-T
°C
Wind Press
QNH
hPa
Press
MSL
hPa
Rain since
9am
mm
Dir  Spd
km/h
Gust
km/h
Spd
kts
Gust
kts
18/11:30pm 21.0 16.1 -3.5 19 10.3 S 13 19 7 10 1019.5 1019.0 0.0
18/11:00pm 21.2 17.1 -0.1 24 9.6 S 11 17 6 9 1019.4 1018.9 0.0
18/10:30pm 21.4 17.6 1.7 27 9.2 S 11 13 6 7 1019.2 1018.7 0.0
18/10:00pm 21.9 18.9 2.1 27 9.4 S 7 11 4 6 1019.0 1018.5 0.0
18/09:30pm 23.1 19.4 2.6 26 9.9 SSW 11 15 6 8 1018.7 1018.1 0.0
18/09:00pm 23.0 19.7 2.5 26 9.8 SW 9 13 5 7 1018.4 1017.8 0.0
18/08:30pm 23.2 20.2 2.1 25 10.1 SSW 7 9 4 5 1018.2 1017.6 0.0
18/08:00pm 24.2 21.4 1.8 23 10.7 SSW 6 9 3 5 1017.8 1017.3 0.0
18/07:30pm 25.4 21.9 1.5 21 11.5 SW 9 15 5 8 1017.3 1016.8 0.0
18/07:00pm 26.9 23.5 2.1 20 12.2 SSW 9 13 5 7 1016.8 1016.3 0.0
18/06:30pm 27.1 23.6 1.5 19 12.5 SSW 9 13 5 7 1016.3 1015.8 0.0
18/06:00pm 28.4 25.4 1.8 18 13.1 SSW 7 13 4 7 1015.9 1015.4 0.0
18/05:30pm 30.0 25.8 1.5 16 14.1 SSW 13 20 7 11 1015.6 1015.0 0.0
18/05:00pm 31.1 26.3 0.5 14 15.0 SW 15 24 8 13 1015.3 1014.7 0.0
18/04:30pm 31.9 28.5 2.1 15 15.1 SSW 9 20 5 11 1014.9 1014.3 0.0
18/04:00pm 31.4 28.7 2.6 16 14.7 SSE 6 11 3 6 1014.8 1014.2 0.0
18/03:30pm 31.9 28.2 2.1 15 15.1 SSW 11 17 6 9 1014.9 1014.3 0.0
18/03:00pm 31.1 27.0 2.3 16 14.6 SSW 13 22 7 12 1015.1 1014.5 0.0
18/02:30pm 31.3 27.5 1.6 15 14.9 S 11 24 6 13 1015.4 1014.8 0.0
18/02:00pm 30.2 26.9 2.5 17 14.0 S 9 19 5 10 1015.8 1015.3 0.0
18/01:30pm 30.6 27.0 2.8 17 14.2 SE 11 19 6 10 1016.2 1015.7 0.0
18/01:00pm 30.4 27.1 2.6 17 14.1 SE 9 20 5 11 1016.6 1016.1 0.0
18/12:30pm 30.4 26.7 2.6 17 14.1 SE 11 19 6 10 1017.2 1016.7 0.0
18/12:00pm 29.7 26.1 2.9 18 13.6 SSE 11 22 6 12 1017.7 1017.2 0.0
18/11:30am 28.9 24.6 3.0 19 13.1 SE 15 22 8 12 1018.4 1017.8 0.0
18/11:00am 28.2 24.2 3.1 20 12.6 SE 13 22 7 12 1018.7 1018.1 0.0
18/10:30am 27.5 23.6 3.2 21 12.2 SE 13 24 7 13 1019.0 1018.5 0.0
18/10:00am 26.1 22.8 4.6 25 11.0 SSE 11 17 6 9 1019.3 1018.8 0.0
18/09:30am 25.0 21.4 5.2 28 10.2 S 13 19 7 10 1019.4 1018.9 0.0
18/09:00am 23.2 21.1 6.5 34 8.7 SSE 7 13 4 7 1019.2 1018.7 0.0
18/08:30am 20.1 17.8 5.7 39 7.2 SSE 7 9 4 5 1019.1 1018.6 0.0
18/08:00am 16.9 16.1 6.7 51 5.1 CALM 0 0 0 0 1018.7 1018.1 0.0
18/07:30am 13.7 12.9 6.3 61 3.6 CALM 0 0 0 0 1018.3 1017.7 0.0
18/07:00am 10.5 9.4 5.3 70 2.4 CALM 0 0 0 0 1017.8 1017.3 0.0
18/06:30am 10.2 9.1 5.0 70 2.4 CALM 0 0 0 0 1017.4 1016.9 0.0
18/06:00am 10.7 9.6 5.3 69 2.5 CALM 0 0 0 0 1017.0 1016.5 0.0
18/05:30am 11.1 10.0 5.2 67 2.7 CALM 0 0 0 0 1016.5 1016.0 0.0
18/05:00am 11.6 10.6 5.7 67 2.8 CALM 0 0 0 0 1016.1 1015.6 0.0
18/04:30am 11.6 10.6 5.7 67 2.8 CALM 0 0 0 0 1016.0 1015.5 0.0
18/04:00am 11.1 10.0 5.2 67 2.7 CALM 0 0 0 0 1015.7 1015.1 0.0
18/03:30am 11.8 10.8 5.4 65 3.0 CALM 0 0 0 0 1015.7 1015.1 0.0
18/03:00am 12.1 11.1 5.7 65 3.0 CALM 0 0 0 0 1015.7 1015.1 0.0
18/02:30am 12.8 11.2 6.2 64 3.2 SW 4 4 2 2 1015.7 1015.1 0.0
18/02:00am 13.7 12.8 6.1 60 3.7 CALM 0 0 0 0 1015.5 1014.9 0.0
18/01:30am 14.1 13.2 6.2 59 3.8 CALM 0 4 0 2 1015.5 1014.9 0.0
18/01:00am 14.3 13.0 5.9 57 4.1 NW 2 6 1 3 1015.8 1015.3 0.0
18/12:30am 15.3 14.0 5.8 53 4.6 WSW 2 6 1 3 1016.1 1015.6 0.0
18/12:00am 16.7 14.8 6.5 51 5.1 S 6 7 3 4 1016.1 1015.6 0.0
 
Date/Time
EST
Temp
°C
App
Temp
°C
Dew
Point
°C
Rel
Hum
%
Delta-T
°C
Wind Press
QNH
hPa
Press
MSL
hPa
Rain since
9am
mm
Dir  Spd
km/h
Gust
km/h
Spd
kts
Gust
kts
17/11:30pm 14.8 13.6 6.4 57 4.1 SSW 2 6 1 3 1015.7 1015.1 0.0
17/11:00pm 16.3 14.8 6.7 53 4.8 S 4 7 2 4 1015.5 1014.9 0.0
17/10:30pm 16.7 16.0 7.1 53 4.8 CALM 0 0 0 0 1015.5 1014.9 0.0
17/10:00pm 17.1 16.4 6.9 51 5.1 CALM 0 0 0 0 1015.4 1014.8 0.0
17/09:30pm 18.1 17.4 6.9 48 5.7 CALM 0 0 0 0 1015.3 1014.7 0.0
17/09:00pm 17.8 17.0 6.7 48 5.6 CALM 0 0 0 0 1015.2 1014.6 0.0
17/08:30pm 19.5 18.7 6.3 42 6.7 CALM 0 0 0 0 1015.1 1014.5 0.0
17/08:00pm 21.0 19.3 5.8 37 7.7 NW 4 6 2 3 1014.9 1014.3 0.0
17/07:30pm 22.0 19.7 5.8 35 8.2 NNW 7 9 4 5 1014.5 1013.9 0.0
17/07:00pm 23.3 21.5 5.2 31 9.2 NW 4 6 2 3 1014.0 1013.5 0.0
17/06:30pm 26.6 24.9 6.1 27 10.8 WNW 4 6 2 3 1013.6 1013.1 0.0
17/06:00pm 29.3 27.6 6.0 23 12.4 WNW 4 4 2 2 1013.2 1012.7 0.0
17/05:30pm 31.2 28.5 5.6 20 13.7 W 9 11 5 6 1012.9 1012.4 0.0
17/05:00pm 32.3 29.6 5.7 19 14.4 WNW 9 15 5 8 1012.6 1012.1 0.0
17/04:30pm 32.8 30.1 5.4 18 14.8 WNW 9 19 5 10 1012.3 1011.7 0.0
17/04:00pm 33.0 30.4 6.3 19 14.6 WNW 9 17 5 9 1012.1 1011.5 0.0

Other Formats:

Comma delimited format used in spreadsheet applications
http://www.bom.gov.au/fwo/IDQ60801/IDQ60801.94395.axf

JavaScript Object Notation format (JSON) in row-major order
http://www.bom.gov.au/fwo/IDQ60801/IDQ60801.94395.json